createdAt,value
2019-05-20T00:00:44.704Z,13.79
2019-05-20T00:03:14.088Z,13.79
2019-05-20T00:05:43.902Z,13.70
2019-05-20T00:08:13.418Z,13.57
2019-05-20T00:10:46.772Z,13.42
2019-05-20T00:13:16.220Z,13.21
2019-05-20T00:15:45.582Z,13.05
2019-05-20T00:18:15.066Z,12.92
2019-05-20T00:20:44.580Z,12.78
2019-05-20T00:23:14.037Z,12.77
2019-05-20T00:25:45.121Z,12.85
2019-05-20T00:28:17.032Z,12.91
2019-05-20T00:30:46.612Z,12.97
2019-05-20T00:33:16.125Z,13.05
2019-05-20T00:35:45.698Z,13.10
2019-05-20T00:38:15.243Z,13.11
2019-05-20T00:40:44.864Z,13.14
2019-05-20T00:43:14.883Z,13.17
2019-05-20T00:45:44.346Z,13.17
2019-05-20T00:48:13.775Z,13.17
2019-05-20T00:50:43.178Z,13.13
2019-05-20T00:53:12.643Z,13.13
2019-05-20T00:55:42.591Z,13.13
2019-05-20T00:58:12.012Z,13.11
2019-05-20T01:00:44.804Z,13.14
2019-05-20T01:03:14.287Z,13.17
2019-05-20T01:05:43.671Z,13.17
2019-05-20T01:08:14.451Z,13.08
2019-05-20T01:10:43.944Z,12.99
2019-05-20T01:13:13.363Z,12.90
2019-05-20T01:15:42.819Z,12.84
2019-05-20T01:18:12.284Z,12.85
2019-05-20T01:20:41.664Z,12.81
2019-05-20T01:23:11.079Z,12.68
2019-05-20T01:25:40.471Z,12.51
2019-05-20T01:28:09.760Z,12.49
2019-05-20T01:30:39.290Z,12.55
2019-05-20T01:33:13.674Z,12.68
2019-05-20T01:35:39.800Z,12.73
2019-05-20T01:38:09.241Z,12.71
2019-05-20T01:40:38.801Z,12.64
2019-05-20T01:43:08.139Z,12.58
2019-05-20T01:45:37.635Z,12.50
2019-05-20T01:48:07.155Z,12.47
2019-05-20T01:50:36.648Z,12.43
2019-05-20T01:53:06.128Z,12.40
2019-05-20T01:55:35.559Z,12.44
2019-05-20T01:58:05.099Z,12.53
2019-05-20T02:00:34.709Z,12.61
2019-05-20T02:03:04.106Z,12.74
2019-05-20T02:05:33.643Z,12.78
2019-05-20T02:08:03.011Z,12.72
2019-05-20T02:10:32.480Z,12.77
2019-05-20T02:13:01.969Z,12.74
2019-05-20T02:15:37.435Z,12.71
2019-05-20T02:18:06.923Z,12.64
2019-05-20T02:20:36.279Z,12.62
2019-05-20T02:23:17.624Z,12.60
2019-05-20T02:25:49.405Z,12.57
2019-05-20T02:28:18.878Z,12.63
2019-05-20T02:30:48.335Z,12.64
2019-05-20T02:33:17.781Z,12.64
2019-05-20T02:35:47.156Z,12.60
2019-05-20T02:38:16.714Z,12.61
2019-05-20T02:40:46.099Z,12.58
2019-05-20T02:43:15.469Z,12.58
2019-05-20T02:45:44.958Z,12.66
2019-05-20T02:48:14.462Z,12.63
2019-05-20T02:50:43.774Z,12.59
2019-05-20T02:53:13.369Z,12.61
2019-05-20T02:55:42.742Z,12.61
2019-05-20T02:58:12.221Z,12.64
2019-05-20T03:00:41.731Z,12.73
2019-05-20T03:03:11.131Z,12.84
2019-05-20T03:05:40.454Z,12.77
2019-05-20T03:08:10.060Z,12.72
2019-05-20T03:10:39.465Z,12.62
2019-05-20T03:13:08.924Z,12.54
2019-05-20T03:15:38.485Z,12.45
2019-05-20T03:18:07.854Z,12.40
2019-05-20T03:20:37.431Z,12.37
2019-05-20T03:23:06.885Z,12.41
2019-05-20T03:25:36.287Z,12.44
2019-05-20T03:28:05.951Z,12.49
2019-05-20T03:30:35.383Z,12.42
2019-05-20T03:33:04.785Z,12.38
2019-05-20T03:35:34.246Z,12.28
2019-05-20T03:38:03.704Z,12.37
2019-05-20T03:40:33.132Z,12.42
2019-05-20T03:43:02.558Z,12.40
2019-05-20T03:45:32.089Z,12.36
2019-05-20T03:48:01.478Z,12.28
2019-05-20T03:50:30.954Z,12.23
2019-05-20T03:53:00.366Z,12.30
2019-05-20T03:55:29.838Z,12.28
2019-05-20T03:57:59.250Z,12.26
2019-05-20T04:00:44.049Z,12.25
2019-05-20T04:03:13.936Z,12.24
2019-05-20T04:05:43.474Z,12.28
2019-05-20T04:08:12.883Z,12.27
2019-05-20T04:10:42.262Z,12.35
2019-05-20T04:13:11.847Z,12.33
2019-05-20T04:15:41.412Z,12.42
2019-05-20T04:18:10.878Z,12.45
2019-05-20T04:20:40.308Z,12.58
2019-05-20T04:23:09.919Z,12.70
2019-05-20T04:25:39.382Z,12.65
2019-05-20T04:28:08.938Z,12.71
2019-05-20T04:30:38.328Z,12.77
2019-05-20T04:33:07.819Z,12.81
2019-05-20T04:35:37.331Z,12.82
2019-05-20T04:38:06.812Z,12.88
2019-05-20T04:40:36.339Z,12.93
2019-05-20T04:43:05.831Z,12.91
2019-05-20T04:45:35.367Z,12.98
2019-05-20T04:48:04.908Z,13.08
2019-05-20T04:50:34.375Z,13.15
2019-05-20T04:53:03.756Z,13.22
2019-05-20T04:55:33.276Z,13.36
2019-05-20T04:58:02.691Z,13.50
2019-05-20T05:01:03.200Z,13.48
2019-05-20T05:03:32.953Z,13.55
2019-05-20T05:06:02.307Z,13.60
2019-05-20T05:08:31.880Z,13.63
2019-05-20T05:11:01.268Z,13.65
2019-05-20T05:13:30.776Z,13.71
2019-05-20T05:16:00.165Z,13.68
2019-05-20T05:18:29.717Z,13.75
2019-05-20T05:20:59.217Z,13.87
2019-05-20T05:23:28.718Z,13.99
2019-05-20T05:25:58.333Z,14.01
2019-05-20T05:28:27.777Z,14.03
2019-05-20T05:30:57.245Z,14.04
2019-05-20T05:33:26.730Z,14.04
2019-05-20T05:35:56.205Z,14.15
2019-05-20T05:38:25.764Z,14.19
2019-05-20T05:40:55.367Z,14.25
2019-05-20T05:43:24.743Z,14.18
2019-05-20T05:45:54.146Z,14.21
2019-05-20T05:48:23.693Z,14.30
2019-05-20T05:50:53.081Z,14.31
2019-05-20T05:53:22.483Z,14.34
2019-05-20T05:55:51.956Z,14.28
2019-05-20T05:58:21.412Z,14.41
2019-05-20T06:00:50.863Z,14.41
2019-05-20T06:03:20.322Z,14.50
2019-05-20T06:05:49.738Z,14.47
2019-05-20T06:08:19.294Z,14.53
2019-05-20T06:10:48.692Z,14.62
2019-05-20T06:13:18.254Z,14.59
2019-05-20T06:15:47.703Z,14.63
2019-05-20T06:18:17.289Z,14.71
2019-05-20T06:20:46.693Z,14.75
2019-05-20T06:23:16.073Z,14.67
2019-05-20T06:25:45.465Z,14.78
2019-05-20T06:28:14.998Z,14.76
2019-05-20T06:30:45.640Z,14.85
2019-05-20T06:33:15.325Z,14.82
2019-05-20T06:35:44.977Z,14.71
2019-05-20T06:38:33.480Z,14.62
2019-05-20T06:41:02.975Z,14.66
2019-05-20T06:43:32.609Z,14.67
2019-05-20T06:46:02.044Z,14.64
2019-05-20T06:48:31.472Z,14.71
2019-05-20T06:51:01.182Z,14.87
2019-05-20T06:53:30.766Z,14.96
2019-05-20T06:56:00.398Z,14.88
2019-05-20T06:58:29.829Z,14.92
2019-05-20T07:00:59.281Z,14.88
2019-05-20T07:03:28.818Z,14.99
2019-05-20T07:05:58.369Z,15.01
2019-05-20T07:08:27.841Z,14.96
2019-05-20T07:10:57.408Z,14.88
2019-05-20T07:13:26.988Z,14.93
2019-05-20T07:15:56.484Z,14.77
2019-05-20T07:18:27.550Z,14.79
2019-05-20T07:20:57.180Z,14.93
2019-05-20T07:23:26.679Z,14.97
2019-05-20T07:25:56.107Z,15.09
2019-05-20T07:28:25.573Z,15.19
2019-05-20T07:30:55.093Z,15.21
2019-05-20T07:33:24.507Z,15.26
2019-05-20T07:35:54.967Z,15.15
2019-05-20T07:38:24.449Z,15.20
2019-05-20T07:40:53.849Z,15.21
2019-05-20T07:43:23.197Z,15.28
2019-05-20T07:45:52.875Z,15.44
2019-05-20T07:48:22.407Z,15.31
2019-05-20T07:50:51.967Z,15.24
2019-05-20T07:53:21.761Z,15.27
2019-05-20T07:55:59.379Z,15.34
2019-05-20T07:58:33.453Z,15.35
2019-05-20T08:01:01.585Z,15.40
2019-05-20T08:03:31.057Z,15.54
2019-05-20T08:06:00.542Z,15.57
2019-05-20T08:08:29.941Z,15.65
2019-05-20T08:10:59.507Z,15.69
2019-05-20T08:13:28.972Z,15.89
2019-05-20T08:15:58.541Z,15.91
2019-05-20T08:18:28.083Z,15.88
2019-05-20T08:20:57.603Z,15.93
2019-05-20T08:23:26.978Z,16.00
2019-05-20T08:25:56.382Z,16.07
2019-05-20T08:28:25.753Z,16.03
2019-05-20T08:30:55.354Z,16.09
2019-05-20T08:33:25.144Z,16.09
2019-05-20T08:35:54.628Z,16.26
2019-05-20T08:38:24.091Z,16.44
2019-05-20T08:40:53.778Z,16.55
2019-05-20T08:43:23.129Z,16.57
2019-05-20T08:45:52.564Z,16.79
2019-05-20T08:48:22.269Z,16.87
2019-05-20T08:50:51.733Z,16.76
2019-05-20T08:53:21.291Z,16.85
2019-05-20T08:55:50.885Z,16.96
2019-05-20T08:58:20.506Z,17.06
2019-05-20T09:00:49.877Z,17.14
2019-05-20T09:03:19.335Z,17.28
2019-05-20T09:05:48.844Z,17.32
2019-05-20T09:08:18.289Z,17.46
2019-05-20T09:10:47.779Z,17.78
2019-05-20T09:13:17.253Z,17.78
2019-05-20T09:15:46.754Z,17.71
2019-05-20T09:18:16.170Z,17.72
2019-05-20T09:20:45.721Z,17.96
2019-05-20T09:23:15.126Z,18.09
2019-05-20T09:25:44.628Z,18.30
2019-05-20T09:28:14.149Z,18.25
2019-05-20T09:30:43.506Z,18.42
2019-05-20T09:33:12.945Z,18.28
2019-05-20T09:35:42.677Z,18.32
2019-05-20T09:38:20.135Z,18.33
2019-05-20T09:40:46.751Z,18.56
2019-05-20T09:43:16.317Z,18.45
2019-05-20T09:45:45.697Z,18.52
2019-05-20T09:48:15.578Z,18.79
2019-05-20T09:50:44.981Z,19.10
2019-05-20T09:53:14.397Z,18.55
2019-05-20T09:55:44.049Z,18.51
2019-05-20T09:58:13.971Z,18.71
2019-05-20T10:00:43.426Z,18.74
2019-05-20T10:03:12.828Z,19.02
2019-05-20T10:05:42.247Z,19.00
2019-05-20T10:08:11.791Z,18.94
2019-05-20T10:10:41.350Z,18.92
2019-05-20T10:13:10.866Z,18.96
2019-05-20T10:15:40.440Z,18.79
2019-05-20T10:18:09.951Z,18.51
2019-05-20T10:20:39.365Z,18.29
2019-05-20T10:23:08.810Z,18.19
2019-05-20T10:25:38.678Z,18.10
2019-05-20T10:28:08.267Z,17.91
2019-05-20T10:30:37.661Z,17.84
2019-05-20T10:33:09.323Z,17.78
2019-05-20T10:35:38.279Z,17.73
2019-05-20T10:38:07.721Z,17.65
2019-05-20T10:40:37.149Z,17.61
2019-05-20T10:43:06.862Z,17.62
2019-05-20T10:45:36.524Z,17.70
2019-05-20T10:48:08.727Z,17.51
2019-05-20T10:50:37.179Z,17.51
2019-05-20T10:53:06.624Z,17.44
2019-05-20T10:55:35.999Z,17.50
2019-05-20T10:58:05.558Z,17.65
2019-05-20T11:00:34.913Z,17.74
2019-05-20T11:03:04.290Z,18.00
2019-05-20T11:05:36.142Z,18.25
2019-05-20T11:08:05.602Z,18.16
2019-05-20T11:10:35.022Z,18.22
2019-05-20T11:13:04.460Z,18.26
2019-05-20T11:15:34.928Z,18.16
2019-05-20T11:18:04.509Z,18.21
2019-05-20T11:20:33.888Z,18.18
2019-05-20T11:23:03.408Z,18.35
2019-05-20T11:25:38.773Z,18.43
2019-05-20T11:28:11.831Z,18.28
2019-05-20T11:30:39.417Z,18.12
2019-05-20T11:33:08.918Z,18.02
2019-05-20T11:35:38.392Z,17.97
2019-05-20T11:38:07.850Z,17.94
2019-05-20T11:40:37.302Z,18.03
2019-05-20T11:43:06.758Z,18.09
2019-05-20T11:45:36.222Z,18.06
2019-05-20T11:48:05.725Z,18.08
2019-05-20T11:50:35.188Z,18.41
2019-05-20T11:53:04.823Z,18.67
2019-05-20T11:55:34.309Z,18.66
2019-05-20T11:58:15.475Z,18.60
2019-05-20T12:00:35.019Z,18.64
2019-05-20T12:03:04.385Z,18.87
2019-05-20T12:05:33.858Z,18.87
2019-05-20T12:08:03.341Z,18.70
2019-05-20T12:10:32.843Z,18.53
2019-05-20T12:13:02.231Z,18.35
2019-05-20T12:15:31.792Z,18.44
2019-05-20T12:18:01.307Z,18.45
2019-05-20T12:20:30.773Z,18.71
2019-05-20T12:23:00.279Z,18.89
2019-05-20T12:25:29.651Z,19.31
2019-05-20T12:27:59.075Z,19.66
2019-05-20T12:30:28.519Z,19.98
2019-05-20T12:33:17.298Z,20.13
2019-05-20T12:35:29.130Z,20.15
2019-05-20T12:37:58.643Z,19.94
2019-05-20T12:40:28.169Z,20.02
2019-05-20T12:42:57.619Z,20.11
2019-05-20T12:45:27.152Z,19.96
2019-05-20T12:47:56.659Z,19.81
2019-05-20T12:50:26.251Z,19.69
2019-05-20T12:52:55.669Z,19.50
2019-05-20T12:55:25.196Z,19.64
2019-05-20T12:57:54.642Z,19.51
2019-05-20T13:00:24.333Z,19.55
2019-05-20T13:02:53.705Z,20.10
2019-05-20T13:05:23.119Z,20.37
2019-05-20T13:07:52.647Z,20.45
2019-05-20T13:10:29.563Z,20.32
2019-05-20T13:12:53.360Z,20.11
2019-05-20T13:15:22.912Z,19.74
2019-05-20T13:17:52.428Z,19.48
2019-05-20T13:20:22.942Z,19.54
2019-05-20T13:22:52.361Z,19.66
2019-05-20T13:25:21.957Z,20.04
2019-05-20T13:27:51.532Z,20.34
2019-05-20T13:30:21.460Z,20.47
2019-05-20T13:32:51.164Z,20.10
2019-05-20T13:35:20.692Z,19.46
2019-05-20T13:37:50.137Z,19.61
2019-05-20T13:40:19.540Z,19.73
2019-05-20T13:42:48.976Z,19.87
2019-05-20T13:45:19.132Z,19.97
2019-05-20T13:47:48.600Z,20.08
2019-05-20T13:50:19.317Z,20.47
2019-05-20T13:52:48.696Z,20.39
2019-05-20T13:55:18.232Z,20.83
2019-05-20T13:57:47.713Z,21.13
2019-05-20T14:00:17.640Z,21.59
2019-05-20T14:02:47.051Z,22.16
2019-05-20T14:05:16.620Z,23.69
2019-05-20T14:07:46.102Z,24.66
2019-05-20T14:10:15.820Z,25.87
2019-05-20T14:12:45.210Z,26.02
2019-05-20T14:15:14.850Z,25.61
2019-05-20T14:17:44.263Z,26.15
2019-05-20T14:20:15.460Z,26.91
2019-05-20T14:22:44.953Z,26.96
2019-05-20T14:25:14.560Z,27.29
2019-05-20T14:27:44.108Z,28.33
2019-05-20T14:30:13.738Z,29.18
2019-05-20T14:32:43.141Z,29.34
2019-05-20T14:35:12.718Z,28.43
2019-05-20T14:37:42.276Z,27.59
2019-05-20T14:40:12.886Z,27.56
2019-05-20T14:42:42.257Z,27.38
2019-05-20T14:45:11.922Z,27.12
2019-05-20T14:47:41.321Z,26.67
2019-05-20T14:50:11.669Z,26.82
2019-05-20T14:52:41.084Z,27.42
2019-05-20T14:55:10.745Z,27.57
2019-05-20T14:57:40.630Z,27.65
2019-05-20T15:00:10.250Z,27.33
2019-05-20T15:02:39.700Z,27.63
2019-05-20T15:05:10.293Z,27.16
2019-05-20T15:07:39.749Z,27.47
2019-05-20T15:10:09.904Z,27.48
2019-05-20T15:12:39.397Z,26.56
2019-05-20T15:15:10.220Z,25.07
2019-05-20T15:17:39.690Z,25.15
2019-05-20T15:20:09.436Z,25.21
2019-05-20T15:22:38.976Z,24.24
2019-05-20T15:25:08.884Z,23.94
2019-05-20T15:27:38.438Z,23.54
2019-05-20T15:30:09.490Z,23.33
2019-05-20T15:32:38.999Z,23.19
2019-05-20T15:35:08.575Z,23.37
2019-05-20T15:37:38.047Z,24.74
2019-05-20T15:40:08.012Z,25.99
2019-05-20T15:42:37.478Z,26.62
2019-05-20T15:45:07.838Z,26.52
2019-05-20T15:47:37.269Z,27.82
2019-05-20T15:50:09.992Z,28.32
2019-05-20T15:52:38.386Z,28.02
2019-05-20T15:55:07.947Z,28.42
2019-05-20T15:57:37.449Z,28.48
2019-05-20T16:00:07.540Z,28.18
2019-05-20T16:02:37.056Z,27.89
2019-05-20T16:05:06.788Z,27.76
2019-05-20T16:07:36.282Z,27.05
2019-05-20T16:10:05.910Z,26.85
2019-05-20T16:12:35.542Z,26.13
2019-05-20T16:15:05.581Z,25.54
2019-05-20T16:17:35.132Z,24.92
2019-05-20T16:20:07.005Z,24.03
2019-05-20T16:22:35.927Z,23.35
2019-05-20T16:25:05.917Z,22.79
2019-05-20T16:27:35.451Z,22.54
2019-05-20T16:30:07.353Z,22.15
2019-05-20T16:32:37.145Z,22.06
2019-05-20T16:35:06.925Z,21.93
2019-05-20T16:37:36.360Z,21.81
2019-05-20T16:40:06.423Z,21.84
2019-05-20T16:42:35.939Z,22.02
2019-05-20T16:45:06.141Z,22.13
2019-05-20T16:47:35.689Z,22.33
2019-05-20T16:50:06.242Z,22.46
2019-05-20T16:52:36.243Z,22.59
2019-05-20T16:55:05.897Z,22.66
2019-05-20T16:57:35.461Z,22.76
2019-05-20T17:00:14.743Z,23.06
2019-05-20T17:02:37.465Z,23.11
2019-05-20T17:05:07.058Z,22.75
2019-05-20T17:07:42.318Z,22.01
2019-05-20T17:10:11.838Z,21.46
2019-05-20T17:12:41.252Z,21.27
2019-05-20T17:15:10.978Z,21.09
2019-05-20T17:17:40.527Z,20.99
2019-05-20T17:20:10.171Z,21.19
2019-05-20T17:22:39.584Z,21.36
2019-05-20T17:25:09.204Z,21.20
2019-05-20T17:27:38.808Z,21.24
2019-05-20T17:30:08.520Z,21.18
2019-05-20T17:32:37.968Z,20.96
2019-05-20T17:35:07.345Z,20.83
2019-05-20T17:37:36.920Z,20.71
2019-05-20T17:40:07.178Z,20.54
2019-05-20T17:42:36.943Z,20.45
2019-05-20T17:45:06.468Z,20.36
2019-05-20T17:47:36.168Z,20.13
2019-05-20T17:50:06.187Z,20.17
2019-05-20T17:52:35.712Z,20.20
2019-05-20T17:55:05.502Z,20.15
2019-05-20T17:57:35.059Z,20.04
2019-05-20T18:00:05.145Z,19.92
2019-05-20T18:02:34.679Z,19.67
2019-05-20T18:05:04.472Z,19.60
2019-05-20T18:07:34.041Z,19.52
2019-05-20T18:10:03.691Z,19.47
2019-05-20T18:12:33.456Z,19.22
2019-05-20T18:15:04.682Z,19.11
2019-05-20T18:17:34.238Z,19.02
2019-05-20T18:20:04.538Z,18.79
2019-05-20T18:22:34.223Z,18.80
2019-05-20T18:25:03.737Z,18.72
2019-05-20T18:27:33.412Z,18.66
2019-05-20T18:30:02.831Z,18.51
2019-05-20T18:32:32.583Z,18.44
2019-05-20T18:35:02.113Z,18.49
2019-05-20T18:37:31.563Z,18.42
2019-05-20T18:40:13.499Z,18.25
2019-05-20T18:42:32.381Z,18.17
2019-05-20T18:45:01.910Z,18.10
2019-05-20T18:47:31.605Z,17.99
2019-05-20T18:50:01.341Z,17.99
2019-05-20T18:52:31.033Z,17.95
2019-05-20T18:55:00.577Z,17.86
2019-05-20T18:57:30.368Z,17.74
2019-05-20T18:59:59.952Z,17.69
2019-05-20T19:02:29.737Z,17.64
2019-05-20T19:04:59.476Z,17.62
2019-05-20T19:07:29.248Z,17.50
2019-05-20T19:09:58.871Z,17.46
2019-05-20T19:12:28.704Z,17.52
2019-05-20T19:14:58.471Z,17.41
2019-05-20T19:17:28.201Z,17.41
2019-05-20T19:19:58.189Z,17.32
2019-05-20T19:22:27.911Z,17.37
2019-05-20T19:24:57.788Z,17.37
2019-05-20T19:27:27.550Z,17.30
2019-05-20T19:29:57.310Z,17.25
2019-05-20T19:32:27.080Z,17.29
2019-05-20T19:34:56.765Z,17.39
2019-05-20T19:37:26.542Z,17.41
2019-05-20T19:39:56.259Z,17.39
2019-05-20T19:42:26.024Z,17.43
2019-05-20T19:44:55.665Z,17.44
2019-05-20T19:47:25.465Z,17.44
2019-05-20T19:49:55.248Z,17.41
2019-05-20T19:52:25.082Z,17.50
2019-05-20T19:54:54.613Z,17.49
2019-05-20T19:57:24.109Z,17.44
2019-05-20T19:59:53.829Z,17.46
2019-05-20T20:02:23.469Z,17.44
2019-05-20T20:04:53.335Z,17.32
2019-05-20T20:07:24.090Z,17.34
2019-05-20T20:09:53.599Z,17.48
2019-05-20T20:12:23.121Z,17.38
2019-05-20T20:14:52.578Z,17.33
2019-05-20T20:17:22.345Z,17.14
2019-05-20T20:19:52.086Z,17.07
2019-05-20T20:22:21.583Z,16.98
2019-05-20T20:24:51.051Z,17.18
2019-05-20T20:27:20.647Z,17.03
2019-05-20T20:29:50.214Z,16.94
2019-05-20T20:32:35.167Z,16.95
2019-05-20T20:34:50.917Z,17.03
2019-05-20T20:37:20.402Z,17.01
2019-05-20T20:39:49.857Z,16.90
2019-05-20T20:42:19.340Z,16.77
2019-05-20T20:44:48.755Z,16.82
2019-05-20T20:47:18.257Z,16.78
2019-05-20T20:49:47.677Z,16.59
2019-05-20T20:52:17.012Z,16.61
2019-05-20T20:54:46.402Z,16.38
2019-05-20T20:57:15.941Z,16.49
2019-05-20T20:59:45.454Z,16.52
2019-05-20T21:02:14.965Z,16.58
2019-05-20T21:04:44.448Z,16.42
2019-05-20T21:07:13.860Z,16.41
2019-05-20T21:09:43.328Z,16.27
2019-05-20T21:12:12.866Z,16.14
2019-05-20T21:14:42.398Z,16.18
2019-05-20T21:17:11.837Z,16.08
2019-05-20T21:19:41.292Z,16.09
2019-05-20T21:22:10.952Z,16.01
2019-05-20T21:24:40.397Z,16.07
2019-05-20T21:27:09.903Z,16.08
2019-05-20T21:29:39.357Z,15.98
2019-05-20T21:32:08.855Z,15.85
2019-05-20T21:34:38.381Z,15.71
2019-05-20T21:37:07.861Z,15.85
2019-05-20T21:39:37.332Z,15.79
2019-05-20T21:42:07.260Z,15.75
2019-05-20T21:44:36.801Z,15.77
2019-05-20T21:47:06.282Z,15.77
2019-05-20T21:49:35.792Z,15.74
2019-05-20T21:52:05.248Z,15.69
2019-05-20T21:54:34.771Z,15.63
2019-05-20T21:57:04.218Z,15.67
2019-05-20T21:59:33.742Z,15.62
2019-05-20T22:02:03.210Z,15.65
2019-05-20T22:04:32.765Z,15.56
2019-05-20T22:07:02.183Z,15.55
2019-05-20T22:09:33.603Z,15.54
2019-05-20T22:12:02.925Z,15.36
2019-05-20T22:14:32.461Z,15.38
2019-05-20T22:17:01.943Z,15.32
2019-05-20T22:19:31.459Z,15.35
2019-05-20T22:22:17.933Z,15.43
2019-05-20T22:24:47.471Z,15.31
2019-05-20T22:27:16.983Z,15.10
2019-05-20T22:29:46.335Z,15.10
2019-05-20T22:32:15.789Z,15.07
2019-05-20T22:34:53.090Z,15.05
2019-05-20T22:37:16.457Z,14.97
2019-05-20T22:39:45.941Z,14.91
2019-05-20T22:42:15.359Z,14.95
2019-05-20T22:44:44.779Z,14.99
2019-05-20T22:47:14.087Z,15.05
2019-05-20T22:49:43.581Z,14.93
2019-05-20T22:52:12.942Z,14.80
2019-05-20T22:54:42.440Z,14.87
2019-05-20T22:57:11.928Z,14.85
2019-05-20T22:59:41.377Z,14.79
2019-05-20T23:02:10.707Z,14.90
2019-05-20T23:04:40.141Z,14.75
2019-05-20T23:07:09.542Z,14.71
2019-05-20T23:09:39.025Z,14.78
2019-05-20T23:12:08.447Z,14.77
2019-05-20T23:14:37.990Z,14.76
2019-05-20T23:17:07.479Z,14.82
2019-05-20T23:19:36.880Z,14.75
2019-05-20T23:22:06.197Z,14.61
2019-05-20T23:24:35.568Z,14.72
2019-05-20T23:27:05.080Z,14.66
2019-05-20T23:29:37.399Z,14.77
2019-05-20T23:32:06.834Z,14.58
2019-05-20T23:34:36.232Z,14.55
2019-05-20T23:37:05.684Z,14.53
2019-05-20T23:39:35.065Z,14.65
2019-05-20T23:42:04.457Z,14.56
2019-05-20T23:44:33.822Z,14.63
2019-05-20T23:47:03.222Z,14.53
2019-05-20T23:49:32.781Z,14.71
2019-05-20T23:52:02.239Z,14.58
2019-05-20T23:54:31.675Z,14.59
2019-05-20T23:57:01.087Z,14.61
2019-05-20T23:59:30.500Z,14.63
